Portada
METAR-TAF:

METAR-TAF

Aeroports :

Aeroport Internacional de Nador

Nador, Marroc

latitud: 34-59-20N, longitud: 003-01-42W, altitud: 175 m

Observació

L'informe es va fer fa 37 minuts, a les 19:00 UTC
Vent 2 kt del Est
Temperatura 28°C
Humitat 66%
Pressió 1011 hPa
Visibilitat: 8000 m

METAR: GMMW 231900Z 09002KT 8000 NSC 28/21 Q1011 NOSIG

Hora: 20:37 (19:37 UTC)

Pronòstic

L'informe es va fer fa 2 hores i 37 minuts, a les 17:00 UTC
Pronòstic vàlid del 23 a les 18 UTC al 24 a les 24 UTC
Vent 6 kt del Nord-Est
Visibilitat 10 km o més
sense núvols per sota de 1500 mi sense presència de cumulonimbus.
Probabilitat 30%
l' 24 a les 00 UTC al 24 a les 07 UTC
Visibilitat: 4000 m
Cel ennuvolat a una alçada de 800 ft
boirina

TAF: GMMW 231700Z 2318/2424 04006KT CAVOK PROB30 2400/2407 4000 BR BKN008

Observacions i pronòstics meteorològics de més de 4000 aeroports (METAR i TAF).

Les estacions disponibles són els punts grocs i vermells al mapa.

Posi el ratolí al punt desitjat per veure el nom de l'estació.

Feu clic per veure les observacions i els pronòstics meteorològics.

Per canviar el mapa: feu clic els botons verds amb una creu de color negre per apropar; al botó verd amb un guió per allunyar la imatge; o en les fletxes verdes per a mapes adjacents.


METAR-TAF: